Archival Weather

Downtown Manhattan/Wall St

New York, Downtown Manhattan/Wall St (KJRB)

Report from: Friday, February 23, 2024 12:56 AM EST
Current time: Wednesday, May 29, 2024 7:57 PM EDT

Current weather – Weather history – Daily summaries
Weather forecast

Present weatherLight rain
Temperature5.6°C (42.1°F)
Wind chill3.6°C (38.4°F)
Dew point3.9°C (39.0°F)
Winds 5 kts (2.6 m/s, 5.8 mph) East (100°)
Visibility10 mi. (16.1 km)
Clouds Ceiling: Overcast 5,500 ft. (1,676 m)
Altimeter29.66 in.Hg (1004 mB)
Relative humidity89 %
Density altitude-717 ft. (-219 m)
Sea-level pressure100.5 kPa (1005 mB, 29.66 in.Hg)
Max temp last 6 hours5.6°C (42.1°F)
Min temp last 6 hours4.4°C (39.9°F)
Remarks Fully automated report
System requires maintenance
Automated weather observing station with precipitation discriminator
Precipitation sensor not operating
Pressure falling
Flight conditions Visual Meteorological Conditions
Raw dataKJRB 230556Z AUTO 10005KT 10SM -RA OVC055 06/04 A2966 RMK AO2 SLP045 6//// T00560039 10056 20044 57031 PNO $
An error has occurred. This application may no longer respond until reloaded. Reload 🗙